sensor_id;sensor_type;location;lat;lon;timestamp;P1;durP1;ratioP1;P2;durP2;ratioP2
4636;SDS011;2331;48.806;9.140;2023-09-12T00:01:03;11.13;;;7.73;;
4636;SDS011;2331;48.806;9.140;2023-09-12T00:03:30;10.93;;;7.13;;
4636;SDS011;2331;48.806;9.140;2023-09-12T00:05:58;16.40;;;7.63;;
4636;SDS011;2331;48.806;9.140;2023-09-12T00:08:26;13.50;;;8.23;;
4636;SDS011;2331;48.806;9.140;2023-09-12T00:10:59;12.70;;;7.20;;
4636;SDS011;2331;48.806;9.140;2023-09-12T00:13:28;14.70;;;8.10;;
4636;SDS011;2331;48.806;9.140;2023-09-12T00:15:56;14.93;;;7.87;;
4636;SDS011;2331;48.806;9.140;2023-09-12T00:18:23;18.73;;;8.03;;
4636;SDS011;2331;48.806;9.140;2023-09-12T00:20:50;13.30;;;7.50;;
4636;SDS011;2331;48.806;9.140;2023-09-12T00:23:17;18.83;;;7.63;;
4636;SDS011;2331;48.806;9.140;2023-09-12T00:25:44;15.30;;;8.27;;
4636;SDS011;2331;48.806;9.140;2023-09-12T00:28:11;14.50;;;8.00;;
4636;SDS011;2331;48.806;9.140;2023-09-12T00:30:38;13.00;;;7.53;;
4636;SDS011;2331;48.806;9.140;2023-09-12T00:33:06;12.43;;;7.63;;
4636;SDS011;2331;48.806;9.140;2023-09-12T00:35:33;14.80;;;7.90;;
4636;SDS011;2331;48.806;9.140;2023-09-12T00:38:00;13.37;;;7.90;;
4636;SDS011;2331;48.806;9.140;2023-09-12T00:40:26;14.10;;;7.87;;
4636;SDS011;2331;48.806;9.140;2023-09-12T00:42:53;13.23;;;8.30;;
4636;SDS011;2331;48.806;9.140;2023-09-12T00:45:20;16.87;;;7.70;;
4636;SDS011;2331;48.806;9.140;2023-09-12T00:47:47;15.83;;;7.73;;
4636;SDS011;2331;48.806;9.140;2023-09-12T00:50:16;13.83;;;7.73;;
4636;SDS011;2331;48.806;9.140;2023-09-12T00:52:44;15.77;;;8.43;;
4636;SDS011;2331;48.806;9.140;2023-09-12T00:55:12;13.30;;;7.97;;
4636;SDS011;2331;48.806;9.140;2023-09-12T00:57:39;16.07;;;8.10;;
4636;SDS011;2331;48.806;9.140;2023-09-12T01:00:07;13.77;;;8.33;;
4636;SDS011;2331;48.806;9.140;2023-09-12T01:02:37;12.90;;;7.77;;
4636;SDS011;2331;48.806;9.140;2023-09-12T01:05:05;16.10;;;8.50;;
4636;SDS011;2331;48.806;9.140;2023-09-12T01:07:34;13.30;;;8.30;;
4636;SDS011;2331;48.806;9.140;2023-09-12T01:10:01;15.07;;;8.23;;
4636;SDS011;2331;48.806;9.140;2023-09-12T01:12:29;11.83;;;7.27;;
4636;SDS011;2331;48.806;9.140;2023-09-12T01:14:56;17.80;;;8.17;;
4636;SDS011;2331;48.806;9.140;2023-09-12T01:17:22;14.90;;;8.40;;
4636;SDS011;2331;48.806;9.140;2023-09-12T01:19:50;14.40;;;8.20;;
4636;SDS011;2331;48.806;9.140;2023-09-12T01:22:31;12.63;;;7.90;;
4636;SDS011;2331;48.806;9.140;2023-09-12T01:25:25;14.00;;;8.47;;
4636;SDS011;2331;48.806;9.140;2023-09-12T01:28:18;15.63;;;8.53;;
4636;SDS011;2331;48.806;9.140;2023-09-12T01:30:48;13.93;;;8.40;;
4636;SDS011;2331;48.806;9.140;2023-09-12T01:33:16;12.33;;;8.67;;
4636;SDS011;2331;48.806;9.140;2023-09-12T01:35:44;13.00;;;8.50;;
4636;SDS011;2331;48.806;9.140;2023-09-12T01:38:11;14.03;;;8.47;;
4636;SDS011;2331;48.806;9.140;2023-09-12T01:40:39;14.50;;;8.60;;
4636;SDS011;2331;48.806;9.140;2023-09-12T01:43:12;14.70;;;9.00;;
4636;SDS011;2331;48.806;9.140;2023-09-12T01:45:44;14.53;;;8.77;;
4636;SDS011;2331;48.806;9.140;2023-09-12T01:48:12;13.23;;;8.37;;
4636;SDS011;2331;48.806;9.140;2023-09-12T01:50:42;17.47;;;8.77;;
4636;SDS011;2331;48.806;9.140;2023-09-12T01:53:10;16.13;;;9.03;;
4636;SDS011;2331;48.806;9.140;2023-09-12T01:55:39;14.53;;;8.47;;
4636;SDS011;2331;48.806;9.140;2023-09-12T01:58:06;18.80;;;8.67;;
4636;SDS011;2331;48.806;9.140;2023-09-12T02:00:33;14.20;;;8.60;;
4636;SDS011;2331;48.806;9.140;2023-09-12T02:03:03;17.63;;;8.20;;
4636;SDS011;2331;48.806;9.140;2023-09-12T02:05:30;12.57;;;8.27;;
4636;SDS011;2331;48.806;9.140;2023-09-12T02:07:57;18.00;;;9.90;;
4636;SDS011;2331;48.806;9.140;2023-09-12T02:10:25;13.97;;;9.17;;
4636;SDS011;2331;48.806;9.140;2023-09-12T02:12:52;15.50;;;8.80;;
4636;SDS011;2331;48.806;9.140;2023-09-12T02:15:19;15.57;;;9.00;;
4636;SDS011;2331;48.806;9.140;2023-09-12T02:17:45;17.17;;;9.53;;
4636;SDS011;2331;48.806;9.140;2023-09-12T02:20:16;14.77;;;9.70;;
4636;SDS011;2331;48.806;9.140;2023-09-12T02:22:43;16.60;;;10.03;;
4636;SDS011;2331;48.806;9.140;2023-09-12T02:25:10;20.83;;;9.73;;
4636;SDS011;2331;48.806;9.140;2023-09-12T02:27:37;13.90;;;9.77;;
4636;SDS011;2331;48.806;9.140;2023-09-12T02:30:04;15.70;;;9.53;;
4636;SDS011;2331;48.806;9.140;2023-09-12T02:32:32;18.70;;;10.03;;
4636;SDS011;2331;48.806;9.140;2023-09-12T02:34:59;13.63;;;9.20;;
4636;SDS011;2331;48.806;9.140;2023-09-12T02:37:27;15.37;;;9.97;;
4636;SDS011;2331;48.806;9.140;2023-09-12T02:39:53;15.40;;;9.33;;
4636;SDS011;2331;48.806;9.140;2023-09-12T02:42:20;16.13;;;10.10;;
4636;SDS011;2331;48.806;9.140;2023-09-12T02:44:47;14.43;;;10.23;;
4636;SDS011;2331;48.806;9.140;2023-09-12T02:47:14;20.50;;;11.70;;
4636;SDS011;2331;48.806;9.140;2023-09-12T02:49:41;12.53;;;9.53;;
4636;SDS011;2331;48.806;9.140;2023-09-12T02:52:07;12.60;;;9.60;;
4636;SDS011;2331;48.806;9.140;2023-09-12T02:54:36;17.00;;;9.50;;
4636;SDS011;2331;48.806;9.140;2023-09-12T02:57:03;15.93;;;9.40;;
4636;SDS011;2331;48.806;9.140;2023-09-12T02:59:30;14.23;;;9.80;;
4636;SDS011;2331;48.806;9.140;2023-09-12T03:01:56;15.73;;;10.13;;
4636;SDS011;2331;48.806;9.140;2023-09-12T03:04:24;15.90;;;10.10;;
4636;SDS011;2331;48.806;9.140;2023-09-12T03:06:52;19.97;;;9.80;;
4636;SDS011;2331;48.806;9.140;2023-09-12T03:09:19;15.00;;;10.20;;
4636;SDS011;2331;48.806;9.140;2023-09-12T03:11:48;13.73;;;9.70;;
4636;SDS011;2331;48.806;9.140;2023-09-12T03:14:15;16.43;;;9.27;;
4636;SDS011;2331;48.806;9.140;2023-09-12T03:16:42;18.50;;;10.47;;
4636;SDS011;2331;48.806;9.140;2023-09-12T03:19:09;17.33;;;9.53;;
4636;SDS011;2331;48.806;9.140;2023-09-12T03:21:35;14.70;;;9.53;;
4636;SDS011;2331;48.806;9.140;2023-09-12T03:24:04;18.27;;;9.60;;
4636;SDS011;2331;48.806;9.140;2023-09-12T03:26:33;12.60;;;8.23;;
4636;SDS011;2331;48.806;9.140;2023-09-12T03:29:01;12.50;;;8.00;;
4636;SDS011;2331;48.806;9.140;2023-09-12T03:31:28;15.50;;;9.13;;
4636;SDS011;2331;48.806;9.140;2023-09-12T03:33:55;13.03;;;9.33;;
4636;SDS011;2331;48.806;9.140;2023-09-12T03:36:23;27.50;;;11.50;;
4636;SDS011;2331;48.806;9.140;2023-09-12T03:38:50;13.67;;;9.00;;
4636;SDS011;2331;48.806;9.140;2023-09-12T03:41:16;15.30;;;9.47;;
4636;SDS011;2331;48.806;9.140;2023-09-12T03:43:43;13.80;;;9.20;;
4636;SDS011;2331;48.806;9.140;2023-09-12T03:46:11;14.87;;;9.53;;
4636;SDS011;2331;48.806;9.140;2023-09-12T03:48:38;15.57;;;9.93;;
4636;SDS011;2331;48.806;9.140;2023-09-12T03:51:05;16.90;;;9.87;;
4636;SDS011;2331;48.806;9.140;2023-09-12T03:53:32;17.37;;;9.67;;
4636;SDS011;2331;48.806;9.140;2023-09-12T03:55:58;16.77;;;9.63;;
4636;SDS011;2331;48.806;9.140;2023-09-12T03:58:25;13.03;;;8.63;;
4636;SDS011;2331;48.806;9.140;2023-09-12T04:00:52;18.40;;;9.43;;
4636;SDS011;2331;48.806;9.140;2023-09-12T04:03:21;15.63;;;10.23;;
4636;SDS011;2331;48.806;9.140;2023-09-12T04:05:48;12.30;;;9.10;;
4636;SDS011;2331;48.806;9.140;2023-09-12T04:08:16;16.57;;;9.47;;
4636;SDS011;2331;48.806;9.140;2023-09-12T04:10:43;14.17;;;9.83;;
4636;SDS011;2331;48.806;9.140;2023-09-12T04:13:09;15.60;;;9.97;;
4636;SDS011;2331;48.806;9.140;2023-09-12T04:15:36;18.23;;;10.03;;
4636;SDS011;2331;48.806;9.140;2023-09-12T04:18:03;16.57;;;9.57;;
4636;SDS011;2331;48.806;9.140;2023-09-12T04:20:32;15.63;;;10.37;;
4636;SDS011;2331;48.806;9.140;2023-09-12T04:23:00;23.73;;;10.10;;
4636;SDS011;2331;48.806;9.140;2023-09-12T04:25:27;16.60;;;10.37;;
4636;SDS011;2331;48.806;9.140;2023-09-12T04:27:54;15.40;;;9.73;;
4636;SDS011;2331;48.806;9.140;2023-09-12T04:30:21;17.57;;;10.30;;
4636;SDS011;2331;48.806;9.140;2023-09-12T04:32:48;14.87;;;8.97;;
4636;SDS011;2331;48.806;9.140;2023-09-12T04:35:15;14.50;;;9.37;;
4636;SDS011;2331;48.806;9.140;2023-09-12T04:37:44;12.67;;;9.00;;
4636;SDS011;2331;48.806;9.140;2023-09-12T04:40:11;15.33;;;10.03;;
4636;SDS011;2331;48.806;9.140;2023-09-12T04:42:38;17.33;;;10.60;;
4636;SDS011;2331;48.806;9.140;2023-09-12T04:45:04;15.00;;;9.77;;
4636;SDS011;2331;48.806;9.140;2023-09-12T04:47:32;13.33;;;9.37;;
4636;SDS011;2331;48.806;9.140;2023-09-12T04:49:58;13.40;;;9.93;;
4636;SDS011;2331;48.806;9.140;2023-09-12T04:52:26;14.03;;;9.97;;
4636;SDS011;2331;48.806;9.140;2023-09-12T04:54:54;19.07;;;10.70;;
4636;SDS011;2331;48.806;9.140;2023-09-12T04:57:21;17.97;;;10.50;;
4636;SDS011;2331;48.806;9.140;2023-09-12T04:59:48;16.97;;;10.47;;
4636;SDS011;2331;48.806;9.140;2023-09-12T05:02:14;13.53;;;9.60;;
4636;SDS011;2331;48.806;9.140;2023-09-12T05:04:41;20.10;;;11.00;;
4636;SDS011;2331;48.806;9.140;2023-09-12T05:07:08;12.83;;;9.20;;
4636;SDS011;2331;48.806;9.140;2023-09-12T05:09:35;15.10;;;10.03;;
4636;SDS011;2331;48.806;9.140;2023-09-12T05:12:03;16.23;;;10.40;;
4636;SDS011;2331;48.806;9.140;2023-09-12T05:14:31;13.67;;;9.63;;
4636;SDS011;2331;48.806;9.140;2023-09-12T05:16:57;16.00;;;9.53;;
4636;SDS011;2331;48.806;9.140;2023-09-12T05:19:24;15.50;;;9.97;;
4636;SDS011;2331;48.806;9.140;2023-09-12T05:21:51;16.83;;;9.73;;
4636;SDS011;2331;48.806;9.140;2023-09-12T05:24:18;13.60;;;10.07;;
4636;SDS011;2331;48.806;9.140;2023-09-12T05:26:45;15.87;;;11.20;;
4636;SDS011;2331;48.806;9.140;2023-09-12T05:29:14;20.40;;;10.80;;
4636;SDS011;2331;48.806;9.140;2023-09-12T05:31:41;19.77;;;11.30;;
4636;SDS011;2331;48.806;9.140;2023-09-12T05:34:08;16.87;;;10.70;;
4636;SDS011;2331;48.806;9.140;2023-09-12T05:36:34;21.37;;;9.93;;
4636;SDS011;2331;48.806;9.140;2023-09-12T05:39:01;16.43;;;10.90;;
4636;SDS011;2331;48.806;9.140;2023-09-12T05:41:29;18.20;;;11.20;;
4636;SDS011;2331;48.806;9.140;2023-09-12T05:43:55;18.90;;;10.60;;
4636;SDS011;2331;48.806;9.140;2023-09-12T05:46:23;18.17;;;11.70;;
4636;SDS011;2331;48.806;9.140;2023-09-12T05:48:50;17.83;;;11.13;;
4636;SDS011;2331;48.806;9.140;2023-09-12T05:51:17;18.23;;;10.57;;
4636;SDS011;2331;48.806;9.140;2023-09-12T05:53:44;16.77;;;11.23;;
4636;SDS011;2331;48.806;9.140;2023-09-12T05:56:11;13.23;;;10.10;;
4636;SDS011;2331;48.806;9.140;2023-09-12T05:58:38;20.93;;;11.23;;
4636;SDS011;2331;48.806;9.140;2023-09-12T06:01:07;17.63;;;11.50;;
4636;SDS011;2331;48.806;9.140;2023-09-12T06:03:35;18.43;;;10.77;;
4636;SDS011;2331;48.806;9.140;2023-09-12T06:06:02;17.30;;;11.13;;
4636;SDS011;2331;48.806;9.140;2023-09-12T06:08:29;18.73;;;11.73;;
4636;SDS011;2331;48.806;9.140;2023-09-12T06:10:56;22.50;;;11.90;;
4636;SDS011;2331;48.806;9.140;2023-09-12T06:13:23;17.10;;;11.60;;
4636;SDS011;2331;48.806;9.140;2023-09-12T06:15:49;21.20;;;11.80;;
4636;SDS011;2331;48.806;9.140;2023-09-12T06:18:16;17.13;;;11.80;;
4636;SDS011;2331;48.806;9.140;2023-09-12T06:20:44;21.00;;;12.70;;
4636;SDS011;2331;48.806;9.140;2023-09-12T06:23:11;20.37;;;11.80;;
4636;SDS011;2331;48.806;9.140;2023-09-12T06:25:38;19.50;;;11.90;;
4636;SDS011;2331;48.806;9.140;2023-09-12T06:28:05;17.20;;;11.13;;
4636;SDS011;2331;48.806;9.140;2023-09-12T06:30:32;24.83;;;11.50;;
4636;SDS011;2331;48.806;9.140;2023-09-12T06:32:59;19.53;;;11.00;;
4636;SDS011;2331;48.806;9.140;2023-09-12T06:35:26;18.13;;;11.20;;
4636;SDS011;2331;48.806;9.140;2023-09-12T06:37:54;19.10;;;10.97;;
4636;SDS011;2331;48.806;9.140;2023-09-12T06:40:21;17.63;;;10.90;;
4636;SDS011;2331;48.806;9.140;2023-09-12T06:42:48;23.03;;;12.13;;
4636;SDS011;2331;48.806;9.140;2023-09-12T06:45:15;20.43;;;11.00;;
4636;SDS011;2331;48.806;9.140;2023-09-12T06:47:42;20.70;;;11.07;;
4636;SDS011;2331;48.806;9.140;2023-09-12T06:50:09;19.60;;;10.97;;
4636;SDS011;2331;48.806;9.140;2023-09-12T06:52:36;20.03;;;10.87;;
4636;SDS011;2331;48.806;9.140;2023-09-12T06:55:05;15.13;;;10.17;;
4636;SDS011;2331;48.806;9.140;2023-09-12T06:57:32;13.53;;;9.60;;
4636;SDS011;2331;48.806;9.140;2023-09-12T06:59:59;18.50;;;10.97;;
4636;SDS011;2331;48.806;9.140;2023-09-12T07:02:26;23.50;;;11.53;;
4636;SDS011;2331;48.806;9.140;2023-09-12T07:04:53;15.53;;;10.97;;
4636;SDS011;2331;48.806;9.140;2023-09-12T07:07:21;22.03;;;11.50;;
4636;SDS011;2331;48.806;9.140;2023-09-12T07:09:48;21.23;;;11.60;;
4636;SDS011;2331;48.806;9.140;2023-09-12T07:12:16;19.00;;;10.67;;
4636;SDS011;2331;48.806;9.140;2023-09-12T07:14:43;19.10;;;10.90;;
4636;SDS011;2331;48.806;9.140;2023-09-12T07:17:09;19.30;;;10.60;;
4636;SDS011;2331;48.806;9.140;2023-09-12T07:19:36;24.73;;;10.70;;
4636;SDS011;2331;48.806;9.140;2023-09-12T07:22:03;20.27;;;11.40;;
4636;SDS011;2331;48.806;9.140;2023-09-12T07:24:30;16.50;;;10.93;;
4636;SDS011;2331;48.806;9.140;2023-09-12T07:26:57;17.23;;;10.87;;
4636;SDS011;2331;48.806;9.140;2023-09-12T07:29:25;20.13;;;10.63;;
4636;SDS011;2331;48.806;9.140;2023-09-12T07:31:52;16.10;;;10.33;;
4636;SDS011;2331;48.806;9.140;2023-09-12T07:34:19;16.17;;;11.30;;
4636;SDS011;2331;48.806;9.140;2023-09-12T07:36:46;17.43;;;10.67;;
4636;SDS011;2331;48.806;9.140;2023-09-12T07:39:13;20.57;;;11.43;;
4636;SDS011;2331;48.806;9.140;2023-09-12T07:41:40;18.70;;;9.80;;
4636;SDS011;2331;48.806;9.140;2023-09-12T07:44:06;20.33;;;10.73;;
4636;SDS011;2331;48.806;9.140;2023-09-12T07:46:37;21.10;;;10.77;;
4636;SDS011;2331;48.806;9.140;2023-09-12T07:49:04;19.43;;;11.30;;
4636;SDS011;2331;48.806;9.140;2023-09-12T07:51:33;14.00;;;10.13;;
4636;SDS011;2331;48.806;9.140;2023-09-12T07:53:59;13.07;;;9.60;;
4636;SDS011;2331;48.806;9.140;2023-09-12T07:56:26;18.30;;;10.23;;
4636;SDS011;2331;48.806;9.140;2023-09-12T07:58:53;20.57;;;10.03;;
4636;SDS011;2331;48.806;9.140;2023-09-12T08:01:20;16.63;;;10.60;;
4636;SDS011;2331;48.806;9.140;2023-09-12T08:03:48;16.80;;;10.60;;
4636;SDS011;2331;48.806;9.140;2023-09-12T08:06:16;16.83;;;9.93;;
4636;SDS011;2331;48.806;9.140;2023-09-12T08:08:42;15.90;;;10.47;;
4636;SDS011;2331;48.806;9.140;2023-09-12T08:11:10;14.83;;;9.70;;
4636;SDS011;2331;48.806;9.140;2023-09-12T08:13:36;17.27;;;10.40;;
4636;SDS011;2331;48.806;9.140;2023-09-12T08:16:03;21.23;;;9.33;;
4636;SDS011;2331;48.806;9.140;2023-09-12T08:18:30;16.67;;;9.97;;
4636;SDS011;2331;48.806;9.140;2023-09-12T08:20:58;16.17;;;10.30;;
4636;SDS011;2331;48.806;9.140;2023-09-12T08:23:25;18.67;;;10.30;;
4636;SDS011;2331;48.806;9.140;2023-09-12T08:25:52;18.90;;;10.80;;
4636;SDS011;2331;48.806;9.140;2023-09-12T08:28:19;24.33;;;11.43;;
4636;SDS011;2331;48.806;9.140;2023-09-12T08:30:46;18.97;;;10.27;;
4636;SDS011;2331;48.806;9.140;2023-09-12T08:33:13;19.27;;;11.00;;
4636;SDS011;2331;48.806;9.140;2023-09-12T08:35:39;16.73;;;10.33;;
4636;SDS011;2331;48.806;9.140;2023-09-12T08:38:08;18.10;;;11.57;;
4636;SDS011;2331;48.806;9.140;2023-09-12T08:40:35;22.83;;;10.70;;
4636;SDS011;2331;48.806;9.140;2023-09-12T08:43:03;17.93;;;10.37;;
4636;SDS011;2331;48.806;9.140;2023-09-12T08:45:30;22.10;;;10.57;;
4636;SDS011;2331;48.806;9.140;2023-09-12T08:47:58;19.03;;;11.03;;
4636;SDS011;2331;48.806;9.140;2023-09-12T08:50:26;20.83;;;11.10;;
4636;SDS011;2331;48.806;9.140;2023-09-12T08:52:56;17.97;;;11.03;;
4636;SDS011;2331;48.806;9.140;2023-09-12T08:55:24;20.13;;;10.93;;
4636;SDS011;2331;48.806;9.140;2023-09-12T08:57:51;19.97;;;10.80;;
4636;SDS011;2331;48.806;9.140;2023-09-12T09:00:21;20.10;;;11.00;;
4636;SDS011;2331;48.806;9.140;2023-09-12T09:02:50;15.70;;;9.97;;
4636;SDS011;2331;48.806;9.140;2023-09-12T09:05:17;14.77;;;9.67;;
4636;SDS011;2331;48.806;9.140;2023-09-12T09:07:48;24.73;;;10.67;;
4636;SDS011;2331;48.806;9.140;2023-09-12T09:10:16;20.40;;;10.40;;
4636;SDS011;2331;48.806;9.140;2023-09-12T09:12:47;16.87;;;9.97;;
4636;SDS011;2331;48.806;9.140;2023-09-12T09:15:20;16.97;;;9.83;;
4636;SDS011;2331;48.806;9.140;2023-09-12T09:17:47;17.30;;;11.00;;
4636;SDS011;2331;48.806;9.140;2023-09-12T09:20:20;19.87;;;10.90;;
4636;SDS011;2331;48.806;9.140;2023-09-12T09:22:55;17.43;;;10.20;;
4636;SDS011;2331;48.806;9.140;2023-09-12T09:25:23;21.80;;;10.30;;
4636;SDS011;2331;48.806;9.140;2023-09-12T09:27:51;14.20;;;10.27;;
4636;SDS011;2331;48.806;9.140;2023-09-12T09:30:18;16.20;;;10.13;;
4636;SDS011;2331;48.806;9.140;2023-09-12T09:32:45;20.73;;;10.33;;
4636;SDS011;2331;48.806;9.140;2023-09-12T09:35:13;17.70;;;10.60;;
4636;SDS011;2331;48.806;9.140;2023-09-12T09:37:39;16.53;;;10.90;;
4636;SDS011;2331;48.806;9.140;2023-09-12T09:40:07;19.17;;;10.30;;
4636;SDS011;2331;48.806;9.140;2023-09-12T09:42:36;18.03;;;11.43;;
4636;SDS011;2331;48.806;9.140;2023-09-12T09:45:05;18.93;;;10.13;;
4636;SDS011;2331;48.806;9.140;2023-09-12T09:47:33;15.97;;;9.70;;
4636;SDS011;2331;48.806;9.140;2023-09-12T09:50:00;19.13;;;9.20;;
4636;SDS011;2331;48.806;9.140;2023-09-12T09:52:27;16.70;;;9.57;;
4636;SDS011;2331;48.806;9.140;2023-09-12T09:54:54;16.27;;;10.10;;
4636;SDS011;2331;48.806;9.140;2023-09-12T09:57:20;12.90;;;9.50;;
4636;SDS011;2331;48.806;9.140;2023-09-12T09:59:52;15.30;;;9.33;;
4636;SDS011;2331;48.806;9.140;2023-09-12T10:02:21;15.30;;;8.70;;
4636;SDS011;2331;48.806;9.140;2023-09-12T10:04:51;24.93;;;9.97;;
4636;SDS011;2331;48.806;9.140;2023-09-12T10:07:20;26.23;;;10.33;;
4636;SDS011;2331;48.806;9.140;2023-09-12T10:09:47;12.53;;;9.27;;
4636;SDS011;2331;48.806;9.140;2023-09-12T10:12:15;16.93;;;8.97;;
4636;SDS011;2331;48.806;9.140;2023-09-12T10:14:42;15.13;;;9.10;;
4636;SDS011;2331;48.806;9.140;2023-09-12T10:17:10;24.43;;;9.27;;
4636;SDS011;2331;48.806;9.140;2023-09-12T10:19:43;14.57;;;9.00;;
4636;SDS011;2331;48.806;9.140;2023-09-12T10:22:23;18.47;;;9.53;;
4636;SDS011;2331;48.806;9.140;2023-09-12T10:24:53;12.00;;;8.60;;
4636;SDS011;2331;48.806;9.140;2023-09-12T10:27:23;15.33;;;8.50;;
4636;SDS011;2331;48.806;9.140;2023-09-12T10:29:51;13.37;;;9.10;;
4636;SDS011;2331;48.806;9.140;2023-09-12T10:32:18;17.67;;;9.90;;
4636;SDS011;2331;48.806;9.140;2023-09-12T10:34:46;13.03;;;8.70;;
4636;SDS011;2331;48.806;9.140;2023-09-12T10:37:15;21.00;;;8.90;;
4636;SDS011;2331;48.806;9.140;2023-09-12T10:39:42;13.83;;;8.77;;
4636;SDS011;2331;48.806;9.140;2023-09-12T10:42:10;14.10;;;10.17;;
4636;SDS011;2331;48.806;9.140;2023-09-12T10:44:37;17.60;;;9.37;;
4636;SDS011;2331;48.806;9.140;2023-09-12T10:47:04;12.97;;;8.70;;
4636;SDS011;2331;48.806;9.140;2023-09-12T10:49:32;17.60;;;9.50;;
4636;SDS011;2331;48.806;9.140;2023-09-12T10:52:00;13.20;;;8.93;;
4636;SDS011;2331;48.806;9.140;2023-09-12T10:54:35;16.30;;;9.37;;
4636;SDS011;2331;48.806;9.140;2023-09-12T10:57:04;13.57;;;9.13;;
4636;SDS011;2331;48.806;9.140;2023-09-12T10:59:31;17.70;;;9.50;;
4636;SDS011;2331;48.806;9.140;2023-09-12T11:04:55;15.03;;;9.07;;
4636;SDS011;2331;48.806;9.140;2023-09-12T11:07:33;19.23;;;9.77;;
4636;SDS011;2331;48.806;9.140;2023-09-12T11:10:17;16.40;;;9.63;;
4636;SDS011;2331;48.806;9.140;2023-09-12T11:12:47;19.20;;;9.00;;
4636;SDS011;2331;48.806;9.140;2023-09-12T11:15:29;14.97;;;9.17;;
4636;SDS011;2331;48.806;9.140;2023-09-12T11:18:00;11.40;;;8.20;;
4636;SDS011;2331;48.806;9.140;2023-09-12T11:23:26;14.47;;;8.30;;
4636;SDS011;2331;48.806;9.140;2023-09-12T11:26:03;14.80;;;8.70;;
4636;SDS011;2331;48.806;9.140;2023-09-12T11:28:32;12.80;;;8.40;;
4636;SDS011;2331;48.806;9.140;2023-09-12T11:30:59;23.63;;;8.30;;
4636;SDS011;2331;48.806;9.140;2023-09-12T11:33:26;17.33;;;9.30;;
4636;SDS011;2331;48.806;9.140;2023-09-12T11:35:53;13.93;;;7.63;;
4636;SDS011;2331;48.806;9.140;2023-09-12T11:38:27;13.10;;;8.10;;
4636;SDS011;2331;48.806;9.140;2023-09-12T11:40:55;11.97;;;8.50;;
4636;SDS011;2331;48.806;9.140;2023-09-12T11:43:24;16.10;;;8.90;;
4636;SDS011;2331;48.806;9.140;2023-09-12T11:45:52;16.20;;;9.07;;
4636;SDS011;2331;48.806;9.140;2023-09-12T11:48:20;14.63;;;8.00;;
4636;SDS011;2331;48.806;9.140;2023-09-12T11:50:51;13.87;;;8.83;;
4636;SDS011;2331;48.806;9.140;2023-09-12T11:53:20;12.60;;;8.67;;
4636;SDS011;2331;48.806;9.140;2023-09-12T11:55:52;13.27;;;8.20;;
4636;SDS011;2331;48.806;9.140;2023-09-12T11:58:21;15.20;;;8.60;;
4636;SDS011;2331;48.806;9.140;2023-09-12T12:00:48;34.10;;;10.00;;
4636;SDS011;2331;48.806;9.140;2023-09-12T12:03:17;12.60;;;8.20;;
4636;SDS011;2331;48.806;9.140;2023-09-12T12:05:46;12.20;;;7.83;;
4636;SDS011;2331;48.806;9.140;2023-09-12T12:08:13;11.93;;;8.10;;
4636;SDS011;2331;48.806;9.140;2023-09-12T12:10:42;12.17;;;7.90;;
4636;SDS011;2331;48.806;9.140;2023-09-12T12:13:17;10.87;;;7.83;;
4636;SDS011;2331;48.806;9.140;2023-09-12T12:15:44;13.60;;;8.00;;
4636;SDS011;2331;48.806;9.140;2023-09-12T12:18:11;12.90;;;8.00;;
4636;SDS011;2331;48.806;9.140;2023-09-12T12:20:38;11.70;;;7.53;;
4636;SDS011;2331;48.806;9.140;2023-09-12T12:23:04;11.60;;;7.60;;
4636;SDS011;2331;48.806;9.140;2023-09-12T12:25:31;12.20;;;7.87;;
4636;SDS011;2331;48.806;9.140;2023-09-12T12:27:59;14.10;;;8.80;;
4636;SDS011;2331;48.806;9.140;2023-09-12T12:30:29;12.97;;;8.30;;
4636;SDS011;2331;48.806;9.140;2023-09-12T12:32:57;13.60;;;8.03;;
4636;SDS011;2331;48.806;9.140;2023-09-12T12:35:23;15.90;;;7.70;;
4636;SDS011;2331;48.806;9.140;2023-09-12T12:37:53;14.43;;;7.00;;
4636;SDS011;2331;48.806;9.140;2023-09-12T12:40:21;10.13;;;7.07;;
4636;SDS011;2331;48.806;9.140;2023-09-12T12:42:48;11.10;;;7.70;;
4636;SDS011;2331;48.806;9.140;2023-09-12T12:45:15;16.93;;;7.00;;
4636;SDS011;2331;48.806;9.140;2023-09-12T12:47:45;10.07;;;6.90;;
4636;SDS011;2331;48.806;9.140;2023-09-12T12:50:12;12.63;;;7.80;;
4636;SDS011;2331;48.806;9.140;2023-09-12T12:52:39;9.67;;;6.53;;
4636;SDS011;2331;48.806;9.140;2023-09-12T12:55:08;13.30;;;7.67;;
4636;SDS011;2331;48.806;9.140;2023-09-12T12:57:36;12.37;;;6.90;;
4636;SDS011;2331;48.806;9.140;2023-09-12T13:00:05;9.50;;;6.90;;
4636;SDS011;2331;48.806;9.140;2023-09-12T13:02:35;12.27;;;7.30;;
4636;SDS011;2331;48.806;9.140;2023-09-12T13:05:05;12.33;;;7.20;;
4636;SDS011;2331;48.806;9.140;2023-09-12T13:07:45;10.97;;;7.63;;
4636;SDS011;2331;48.806;9.140;2023-09-12T13:10:12;14.77;;;7.97;;
4636;SDS011;2331;48.806;9.140;2023-09-12T13:12:38;9.83;;;7.10;;
4636;SDS011;2331;48.806;9.140;2023-09-12T13:15:05;16.90;;;7.23;;
4636;SDS011;2331;48.806;9.140;2023-09-12T13:17:33;13.67;;;7.20;;
4636;SDS011;2331;48.806;9.140;2023-09-12T13:20:00;11.57;;;7.27;;
4636;SDS011;2331;48.806;9.140;2023-09-12T13:22:29;10.93;;;7.40;;
4636;SDS011;2331;48.806;9.140;2023-09-12T13:24:56;14.00;;;6.73;;
4636;SDS011;2331;48.806;9.140;2023-09-12T13:27:22;10.93;;;6.80;;
4636;SDS011;2331;48.806;9.140;2023-09-12T13:29:49;16.00;;;7.53;;
4636;SDS011;2331;48.806;9.140;2023-09-12T13:32:16;12.80;;;7.20;;
4636;SDS011;2331;48.806;9.140;2023-09-12T13:34:43;12.30;;;7.50;;
4636;SDS011;2331;48.806;9.140;2023-09-12T13:37:10;12.57;;;6.57;;
4636;SDS011;2331;48.806;9.140;2023-09-12T13:39:38;13.93;;;7.27;;
4636;SDS011;2331;48.806;9.140;2023-09-12T13:42:05;12.97;;;7.20;;
4636;SDS011;2331;48.806;9.140;2023-09-12T13:44:33;19.67;;;7.87;;
4636;SDS011;2331;48.806;9.140;2023-09-12T13:47:00;11.13;;;7.07;;
4636;SDS011;2331;48.806;9.140;2023-09-12T13:49:27;12.07;;;6.73;;
4636;SDS011;2331;48.806;9.140;2023-09-12T13:51:54;12.93;;;6.90;;
4636;SDS011;2331;48.806;9.140;2023-09-12T13:54:20;12.37;;;6.90;;
4636;SDS011;2331;48.806;9.140;2023-09-12T13:56:48;20.10;;;7.37;;
4636;SDS011;2331;48.806;9.140;2023-09-12T13:59:15;11.53;;;6.70;;
4636;SDS011;2331;48.806;9.140;2023-09-12T14:01:45;10.40;;;6.60;;
4636;SDS011;2331;48.806;9.140;2023-09-12T14:04:12;10.33;;;6.60;;
4636;SDS011;2331;48.806;9.140;2023-09-12T14:06:41;18.33;;;6.83;;
4636;SDS011;2331;48.806;9.140;2023-09-12T14:09:08;10.37;;;6.40;;
4636;SDS011;2331;48.806;9.140;2023-09-12T14:11:34;11.30;;;7.00;;
4636;SDS011;2331;48.806;9.140;2023-09-12T14:14:03;8.97;;;6.33;;
4636;SDS011;2331;48.806;9.140;2023-09-12T14:16:30;8.93;;;6.37;;
4636;SDS011;2331;48.806;9.140;2023-09-12T14:18:56;10.10;;;6.30;;
4636;SDS011;2331;48.806;9.140;2023-09-12T14:21:23;11.13;;;6.90;;
4636;SDS011;2331;48.806;9.140;2023-09-12T14:23:50;10.50;;;7.00;;
4636;SDS011;2331;48.806;9.140;2023-09-12T14:26:17;16.33;;;7.50;;
4636;SDS011;2331;48.806;9.140;2023-09-12T14:28:44;8.50;;;6.93;;
4636;SDS011;2331;48.806;9.140;2023-09-12T14:31:12;13.03;;;7.40;;
4636;SDS011;2331;48.806;9.140;2023-09-12T14:33:40;12.00;;;7.43;;
4636;SDS011;2331;48.806;9.140;2023-09-12T14:36:07;11.53;;;7.00;;
4636;SDS011;2331;48.806;9.140;2023-09-12T14:38:35;10.57;;;6.70;;
4636;SDS011;2331;48.806;9.140;2023-09-12T14:41:02;10.80;;;7.10;;
4636;SDS011;2331;48.806;9.140;2023-09-12T14:43:28;12.83;;;7.53;;
4636;SDS011;2331;48.806;9.140;2023-09-12T14:45:55;11.30;;;7.77;;
4636;SDS011;2331;48.806;9.140;2023-09-12T14:48:23;19.00;;;7.43;;
4636;SDS011;2331;48.806;9.140;2023-09-12T14:50:50;12.13;;;7.37;;
4636;SDS011;2331;48.806;9.140;2023-09-12T14:53:17;14.33;;;7.30;;
4636;SDS011;2331;48.806;9.140;2023-09-12T14:55:44;11.50;;;7.60;;
4636;SDS011;2331;48.806;9.140;2023-09-12T14:58:11;17.97;;;6.93;;
4636;SDS011;2331;48.806;9.140;2023-09-12T15:00:38;12.83;;;7.67;;
4636;SDS011;2331;48.806;9.140;2023-09-12T15:03:05;11.50;;;6.57;;
4636;SDS011;2331;48.806;9.140;2023-09-12T15:05:33;10.00;;;6.77;;
4636;SDS011;2331;48.806;9.140;2023-09-12T15:08:00;9.43;;;7.23;;